Time;durP1;ratioP1;P1;durP2;ratioP2;P2;SDS_P1;SDS_P2;PMS_P1;PMS_P2;Temp;Humidity;BMP_temperature;BMP_pressure;BME280_temperature;BME280_humidity;BME280_pressure;Samples;Min_cycle;Max_cycle;Signal;HPM_P1;HPM_P2
2024/01/27 00:02:20;;;;;;;4.45;2.10;;;;;;;8.83;39.63;99256.38;4946082;28;20043;-76
2024/01/27 00:04:45;;;;;;;3.90;2.03;;;;;;;8.77;40.13;99240.31;4945767;28;20042;-77
2024/01/27 00:07:11;;;;;;;3.67;1.95;;;;;;;8.79;40.09;99252.31;4961459;28;20050;-77
2024/01/27 00:09:36;;;;;;;4.55;2.30;;;;;;;8.76;39.96;99244.69;4961629;28;20038;-76
2024/01/27 00:12:02;;;;;;;4.13;2.40;;;;;;;8.79;40.33;99252.31;4962237;28;20046;-77
2024/01/27 00:14:28;;;;;;;6.10;2.55;;;;;;;8.75;40.25;99252.59;4962170;28;20470;-77
2024/01/27 00:16:53;;;;;;;4.38;2.38;;;;;;;8.76;40.40;99259.44;4945735;28;20045;-76
2024/01/27 00:19:19;;;;;;;5.32;3.00;;;;;;;8.75;40.62;99263.00;4977734;28;20042;-76
2024/01/27 00:21:44;;;;;;;5.90;2.65;;;;;;;8.71;40.56;99262.31;4961517;28;20049;-77
2024/01/27 00:24:10;;;;;;;4.00;2.58;;;;;;;8.69;40.44;99262.41;4961675;28;20101;-77
2024/01/27 00:26:35;;;;;;;4.53;2.80;;;;;;;8.67;40.45;99279.06;4946517;28;20105;-77
2024/01/27 00:29:00;;;;;;;5.82;3.20;;;;;;;8.60;40.45;99268.19;4962210;28;20038;-77
2024/01/27 00:31:26;;;;;;;6.47;4.03;;;;;;;8.56;40.58;99264.09;4961916;28;20041;-77
2024/01/27 00:33:52;;;;;;;6.30;3.67;;;;;;;8.60;40.55;99259.53;4962376;28;20043;-77
2024/01/27 00:36:18;;;;;;;6.50;3.85;;;;;;;8.57;40.58;99264.91;4961851;28;20046;-77
2024/01/27 00:38:44;;;;;;;5.70;3.20;;;;;;;8.56;40.94;99265.88;4962158;28;20031;-77
2024/01/27 00:41:12;;;;;;;4.80;3.05;;;;;;;8.54;40.74;99265.97;4976850;28;20371;-77
2024/01/27 00:43:38;;;;;;;4.82;2.97;;;;;;;8.51;40.92;99266.13;4962201;28;20133;-77
2024/01/27 00:46:03;;;;;;;5.03;2.92;;;;;;;8.46;40.94;99262.94;4978274;28;20061;-77
2024/01/27 00:48:29;;;;;;;6.97;3.20;;;;;;;8.44;40.85;99265.63;4945224;28;20525;-77
2024/01/27 00:50:54;;;;;;;4.93;2.83;;;;;;;8.40;40.79;99260.72;4945455;28;20506;-77
2024/01/27 00:53:20;;;;;;;5.25;3.28;;;;;;;8.41;41.02;99270.16;4961549;28;20144;-77
2024/01/27 00:55:45;;;;;;;6.65;3.35;;;;;;;8.38;41.35;99272.94;4961493;28;20510;-78
2024/01/27 00:58:11;;;;;;;5.95;3.30;;;;;;;8.29;41.01;99256.97;4977550;28;20034;-77
2024/01/27 01:00:36;;;;;;;7.63;3.55;;;;;;;8.32;41.11;99264.59;4961260;28;20038;-77
2024/01/27 01:03:02;;;;;;;6.90;3.22;;;;;;;8.28;41.60;99249.25;4977696;28;20037;-77
2024/01/27 01:05:27;;;;;;;6.13;3.28;;;;;;;8.23;41.08;99240.88;4961691;28;20034;-76
2024/01/27 01:07:53;;;;;;;7.55;4.20;;;;;;;8.23;41.17;99244.31;4994774;28;20034;-77
2024/01/27 01:10:18;;;;;;;7.80;4.13;;;;;;;8.21;41.25;99234.94;4961036;28;20089;-78
2024/01/27 01:12:44;;;;;;;6.80;4.30;;;;;;;8.15;41.84;99221.34;4977073;28;20041;-78
2024/01/27 01:15:09;;;;;;;9.13;4.90;;;;;;;8.12;41.78;99229.31;4994851;28;20050;-77
2024/01/27 01:17:35;;;;;;;9.90;5.43;;;;;;;8.10;41.78;99220.78;4994933;28;20042;-78
2024/01/27 01:20:00;;;;;;;10.13;5.88;;;;;;;8.06;41.82;99214.06;4961128;28;20151;-78
2024/01/27 01:22:26;;;;;;;10.07;5.78;;;;;;;8.00;41.77;99208.41;4960944;28;20034;-78
2024/01/27 01:24:51;;;;;;;13.77;7.30;;;;;;;8.02;41.54;99217.81;4960481;28;20457;-79
2024/01/27 01:27:18;;;;;;;14.23;6.72;;;;;;;7.96;42.19;99212.94;4961003;28;20053;-77
2024/01/27 01:29:44;;;;;;;10.52;5.88;;;;;;;7.91;41.82;99218.41;4976899;28;20046;-77
2024/01/27 01:32:10;;;;;;;12.60;6.05;;;;;;;7.89;41.87;99214.22;4976864;28;20414;-77
2024/01/27 01:34:35;;;;;;;10.13;6.05;;;;;;;7.85;42.22;99210.97;4961258;28;20073;-76
2024/01/27 01:37:02;;;;;;;11.50;5.63;;;;;;;7.86;42.23;99214.41;4960689;28;20481;-77
2024/01/27 01:39:28;;;;;;;11.82;6.07;;;;;;;7.86;42.03;99211.78;4961224;28;20506;-78
2024/01/27 01:41:54;;;;;;;8.77;5.13;;;;;;;7.79;42.08;99209.53;4977215;28;20031;-77
2024/01/27 01:44:19;;;;;;;9.77;5.28;;;;;;;7.77;42.36;99208.81;4961200;28;20097;-77
2024/01/27 01:46:45;;;;;;;11.63;5.38;;;;;;;7.71;42.15;99211.75;4976519;28;20402;-78
2024/01/27 01:49:10;;;;;;;8.70;4.30;;;;;;;7.71;42.01;99195.34;4944488;28;20141;-77
2024/01/27 01:51:36;;;;;;;8.02;4.03;;;;;;;7.69;42.21;99205.81;4960774;28;20095;-78
2024/01/27 01:54:01;;;;;;;9.45;4.63;;;;;;;7.68;42.39;99214.53;4944535;28;20497;-78
2024/01/27 01:56:27;;;;;;;10.10;3.95;;;;;;;7.68;42.12;99209.31;4945008;28;20053;-78
2024/01/27 01:58:54;;;;;;;6.20;3.03;;;;;;;7.67;41.91;99202.47;4960702;28;20125;-77
2024/01/27 02:01:21;;;;;;;8.57;3.35;;;;;;;7.66;41.89;99215.56;4944592;28;20034;-77
2024/01/27 02:03:56;;;;;;;4.70;2.88;;;;;;;7.64;42.08;99209.59;4960912;28;20035;-77
2024/01/27 02:06:21;;;;;;;5.97;2.70;;;;;;;7.64;42.25;99202.66;4960430;28;20080;-77
2024/01/27 02:08:47;;;;;;;5.82;3.35;;;;;;;7.64;41.80;99191.41;4944417;28;20142;-77
2024/01/27 02:11:13;;;;;;;6.05;2.72;;;;;;;7.57;41.94;99180.53;4960408;28;20034;-77
2024/01/27 02:13:38;;;;;;;5.40;2.90;;;;;;;7.59;41.72;99182.13;4944350;28;20085;-77
2024/01/27 02:16:04;;;;;;;8.38;2.67;;;;;;;7.58;42.18;99179.59;4960690;28;20042;-77
2024/01/27 02:18:29;;;;;;;5.55;2.83;;;;;;;7.58;41.90;99190.81;4959934;28;20030;-77
2024/01/27 02:20:55;;;;;;;4.00;2.33;;;;;;;7.53;41.85;99172.06;4976307;28;20042;-78
2024/01/27 02:23:20;;;;;;;8.15;2.60;;;;;;;7.60;41.67;99190.75;4976176;28;20490;-78
2024/01/27 02:25:46;;;;;;;6.53;2.72;;;;;;;7.60;41.97;99190.75;4994084;28;20096;-78
2024/01/27 02:28:13;;;;;;;3.45;1.92;;;;;;;7.58;42.01;99183.03;4958221;28;20053;-77
2024/01/27 02:30:38;;;;;;;5.57;2.30;;;;;;;7.56;42.53;99171.91;4992609;28;20159;-77
2024/01/27 02:33:04;;;;;;;4.32;2.30;;;;;;;7.50;42.61;99158.44;4976566;28;20619;-78
2024/01/27 02:35:30;;;;;;;4.50;2.15;;;;;;;7.51;42.47;99163.53;4992437;28;20034;-77
2024/01/27 02:37:55;;;;;;;6.15;2.30;;;;;;;7.52;42.47;99179.94;4993084;28;20122;-78
2024/01/27 02:40:21;;;;;;;5.32;2.30;;;;;;;7.46;42.06;99182.91;4975891;28;20042;-78
2024/01/27 02:42:46;;;;;;;5.05;2.35;;;;;;;7.51;41.97;99193.84;4991912;28;20493;-78
2024/01/27 02:45:12;;;;;;;4.43;2.28;;;;;;;7.52;41.96;99204.16;5008579;28;20045;-78
2024/01/27 02:47:38;;;;;;;4.20;2.30;;;;;;;7.51;42.41;99206.84;4976627;28;20049;-77
2024/01/27 02:50:06;;;;;;;5.07;2.35;;;;;;;7.51;42.66;99206.84;4992574;28;20073;-77
2024/01/27 02:52:31;;;;;;;5.65;2.45;;;;;;;7.51;42.25;99196.44;4992733;28;20046;-78
2024/01/27 02:54:57;;;;;;;3.65;2.20;;;;;;;7.52;42.58;99185.16;4992256;28;20046;-80
2024/01/27 02:57:22;;;;;;;5.47;2.33;;;;;;;7.51;42.69;99178.25;4975861;28;20513;-79
2024/01/27 02:59:48;;;;;;;5.72;2.70;;;;;;;7.52;42.42;99183.38;4992218;28;20038;-78
2024/01/27 03:02:14;;;;;;;5.47;2.42;;;;;;;7.52;42.36;99185.97;4976089;28;20189;-78
2024/01/27 03:04:39;;;;;;;5.18;2.40;;;;;;;7.51;42.66;99179.13;4979305;28;20378;-79
2024/01/27 03:07:05;;;;;;;4.05;2.38;;;;;;;7.49;42.75;99180.13;4982735;28;20074;-77
2024/01/27 03:09:31;;;;;;;2.78;1.80;;;;;;;7.51;42.66;99186.06;4982566;28;20039;-77
2024/01/27 03:11:57;;;;;;;2.78;1.80;;;;;;;7.50;42.53;99177.44;4998694;28;20039;-78
2024/01/27 03:14:22;;;;;;;4.40;2.10;;;;;;;7.51;42.74;99178.25;4982070;28;20038;-77
2024/01/27 03:16:48;;;;;;;4.90;2.25;;;;;;;7.46;42.74;99173.31;5015080;28;20034;-78
2024/01/27 03:19:13;;;;;;;3.83;2.08;;;;;;;7.50;42.66;99176.63;4998578;28;20041;-78
2024/01/27 03:21:39;;;;;;;3.80;1.85;;;;;;;7.48;42.79;99181.91;4981848;28;20077;-78
2024/01/27 03:24:05;;;;;;;3.30;2.00;;;;;;;7.51;42.93;99184.31;5014700;28;20038;-78
2024/01/27 03:26:30;;;;;;;3.17;1.70;;;;;;;7.48;42.68;99168.91;4998339;28;20409;-78
2024/01/27 03:28:55;;;;;;;3.65;1.85;;;;;;;7.49;42.22;99167.13;4982227;28;20042;-77
2024/01/27 03:31:21;;;;;;;4.57;1.95;;;;;;;7.47;42.82;99167.22;4982519;28;20085;-78
2024/01/27 03:33:47;;;;;;;3.17;1.80;;;;;;;7.48;42.23;99168.91;4982241;28;20045;-79
2024/01/27 03:36:13;;;;;;;3.45;1.60;;;;;;;7.48;42.78;99160.25;4982272;28;20034;-78
2024/01/27 03:38:39;;;;;;;3.70;1.90;;;;;;;7.48;42.72;99165.44;4982078;28;20545;-78
2024/01/27 03:41:04;;;;;;;3.03;1.90;;;;;;;7.44;42.43;99154.41;4997832;28;20124;-78
2024/01/27 03:43:31;;;;;;;6.57;2.17;;;;;;;7.47;42.40;99162.03;4981987;28;20136;-79
2024/01/27 03:45:57;;;;;;;4.18;1.77;;;;;;;7.42;42.74;99146.69;4998009;28;20416;-77
2024/01/27 03:48:22;;;;;;;2.85;1.58;;;;;;;7.47;42.46;99149.03;4998383;28;20046;-80
2024/01/27 03:50:48;;;;;;;4.18;1.88;;;;;;;7.48;42.46;99136.88;4998860;28;20072;-77
2024/01/27 03:53:13;;;;;;;4.72;1.80;;;;;;;7.46;42.64;99129.16;4967126;28;20396;-79
2024/01/27 03:55:39;;;;;;;4.05;1.90;;;;;;;7.44;42.43;99120.63;4982086;28;20039;-78
2024/01/27 03:58:06;;;;;;;3.13;1.90;;;;;;;7.50;42.65;99133.28;5014429;28;20042;-79
2024/01/27 04:00:33;;;;;;;7.15;2.22;;;;;;;7.48;42.62;99124.75;4999338;28;20038;-79
2024/01/27 04:02:59;;;;;;;3.60;1.73;;;;;;;7.49;42.29;99126.41;4982065;28;20026;-78
2024/01/27 04:05:25;;;;;;;4.10;2.05;;;;;;;7.45;42.17;99130.13;4998053;28;20129;-78
2024/01/27 04:07:51;;;;;;;6.75;2.00;;;;;;;7.50;42.44;99142.84;4998025;28;20117;-78
2024/01/27 04:10:17;;;;;;;4.70;1.83;;;;;;;7.51;42.39;99145.34;4997895;28;20042;-78
2024/01/27 04:12:43;;;;;;;4.28;1.92;;;;;;;7.45;42.75;99124.06;4965761;28;20129;-77
2024/01/27 04:15:09;;;;;;;6.57;2.35;;;;;;;7.44;42.20;99133.63;4997469;28;20570;-77
2024/01/27 04:17:35;;;;;;;7.00;2.50;;;;;;;7.46;42.39;99136.13;4977661;28;20121;-78
2024/01/27 04:20:01;;;;;;;5.68;2.75;;;;;;;7.49;42.50;99133.38;4994594;28;20054;-78
2024/01/27 04:22:26;;;;;;;5.85;2.78;;;;;;;7.48;42.10;99135.13;4962397;28;20461;-78
2024/01/27 04:24:52;;;;;;;7.28;3.25;;;;;;;7.44;42.87;99141.41;4995237;28;20045;-78
2024/01/27 04:27:17;;;;;;;7.78;3.30;;;;;;;7.48;42.60;99149.88;4994324;28;20034;-78
2024/01/27 04:29:43;;;;;;;6.97;3.60;;;;;;;7.48;42.62;99148.13;4977329;28;20046;-78
2024/01/27 04:32:08;;;;;;;9.73;3.80;;;;;;;7.47;42.30;99145.63;4994311;28;20041;-79
2024/01/27 04:34:34;;;;;;;7.53;3.70;;;;;;;7.48;42.17;99147.25;4978151;28;20042;-77
2024/01/27 04:36:59;;;;;;;8.43;3.50;;;;;;;7.43;42.37;99135.41;4978115;28;20557;-78
2024/01/27 04:39:25;;;;;;;7.72;3.72;;;;;;;7.39;42.67;99128.69;4994278;28;20042;-77
2024/01/27 04:41:50;;;;;;;6.50;3.58;;;;;;;7.43;42.81;99142.34;4994093;28;20081;-78
2024/01/27 04:44:16;;;;;;;6.60;3.47;;;;;;;7.45;42.65;99134.44;4978271;28;20122;-78
2024/01/27 04:46:42;;;;;;;8.02;3.65;;;;;;;7.40;42.58;99124.31;4993991;28;20371;-78
2024/01/27 04:49:07;;;;;;;5.72;3.05;;;;;;;7.43;42.41;99113.75;5010123;28;20458;-79
2024/01/27 04:51:33;;;;;;;6.90;3.85;;;;;;;7.40;42.68;99107.00;4977396;28;20432;-78
2024/01/27 04:53:59;;;;;;;6.05;3.10;;;;;;;7.36;42.81;99099.47;4994050;28;20105;-79
2024/01/27 04:56:24;;;;;;;8.48;3.78;;;;;;;7.37;42.88;99111.53;4977736;28;20042;-79
2024/01/27 04:58:50;;;;;;;7.93;3.63;;;;;;;7.37;42.63;99107.16;5010183;28;20035;-78
2024/01/27 05:01:15;;;;;;;7.32;3.50;;;;;;;7.31;42.89;99093.72;4977533;28;20091;-79
2024/01/27 05:03:41;;;;;;;6.85;3.38;;;;;;;7.33;42.92;99105.66;4978040;28;20035;-79
2024/01/27 05:06:10;;;;;;;10.07;3.75;;;;;;;7.32;43.01;99100.56;4977647;28;20069;-79
2024/01/27 05:08:35;;;;;;;;;;;;;;;7.31;42.71;99104.09;4994332;28;20034;-77
2024/01/27 05:11:01;;;;;;;7.22;3.47;;;;;;;7.25;42.96;99103.50;4961694;28;19963;-79
2024/01/27 05:13:26;;;;;;;7.57;3.35;;;;;;;7.22;43.27;99101.06;4993652;28;20042;-79
2024/01/27 05:15:52;;;;;;;6.65;3.42;;;;;;;7.24;43.02;99100.97;4977637;28;20038;-78
2024/01/27 05:18:17;;;;;;;7.22;3.30;;;;;;;7.23;42.68;99109.72;4993641;28;20042;-78
2024/01/27 05:20:43;;;;;;;8.18;3.25;;;;;;;7.29;43.14;99116.31;4977540;28;20026;-77
2024/01/27 05:23:09;;;;;;;7.35;3.58;;;;;;;7.28;43.58;99123.28;4977498;28;20500;-79
2024/01/27 05:25:34;;;;;;;5.95;3.00;;;;;;;7.25;43.08;99113.88;5009805;28;20113;-78
2024/01/27 05:28:00;;;;;;;4.80;2.90;;;;;;;7.31;43.24;99109.28;4976704;28;20042;-77
2024/01/27 05:30:26;;;;;;;6.75;3.05;;;;;;;7.34;43.14;99111.72;4977138;28;20081;-78
2024/01/27 05:32:51;;;;;;;5.03;2.55;;;;;;;7.33;43.19;99108.25;4976719;28;20046;-78
2024/01/27 05:35:17;;;;;;;7.00;2.67;;;;;;;7.39;42.93;99115.69;4977195;28;20617;-78
2024/01/27 05:37:42;;;;;;;4.25;2.40;;;;;;;7.36;43.07;99109.84;4993226;28;20038;-78
2024/01/27 05:40:09;;;;;;;4.85;2.50;;;;;;;7.38;43.24;99119.22;5009467;28;20039;-78
2024/01/27 05:42:34;;;;;;;5.22;2.63;;;;;;;7.43;43.24;99143.19;4977067;28;20038;-78
2024/01/27 05:45:00;;;;;;;7.70;3.40;;;;;;;7.40;42.99;99119.97;5009181;28;20042;-78
2024/01/27 05:47:26;;;;;;;7.10;3.08;;;;;;;7.47;43.34;99122.22;4976839;28;20045;-78
2024/01/27 05:49:51;;;;;;;7.32;3.60;;;;;;;7.46;43.11;99116.19;4976848;28;20054;-79
2024/01/27 05:52:17;;;;;;;8.10;3.55;;;;;;;7.49;43.21;99118.59;4976682;28;20062;-78
2024/01/27 05:54:42;;;;;;;7.57;3.67;;;;;;;7.46;43.01;99102.38;4992975;28;20422;-79
2024/01/27 05:57:08;;;;;;;9.10;4.10;;;;;;;7.53;42.94;99125.31;4992810;28;20042;-76
2024/01/27 05:59:33;;;;;;;9.48;4.25;;;;;;;7.53;42.82;99120.13;4992905;28;20038;-78
2024/01/27 06:01:59;;;;;;;8.07;3.90;;;;;;;7.56;42.95;99117.34;4992508;28;20041;-79
2024/01/27 06:04:24;;;;;;;8.60;4.45;;;;;;;7.58;43.15;99122.44;4976286;28;20069;-77
2024/01/27 06:06:50;;;;;;;7.60;4.20;;;;;;;7.61;43.14;99120.50;4976214;28;20473;-79
2024/01/27 06:09:16;;;;;;;9.05;4.50;;;;;;;7.57;42.97;99113.81;4959426;28;20038;-79
2024/01/27 06:11:41;;;;;;;7.25;3.92;;;;;;;7.64;43.15;99129.88;4975902;28;20065;-79
2024/01/27 06:14:07;;;;;;;7.88;4.35;;;;;;;7.69;43.13;99134.81;4992200;28;20077;-79
2024/01/27 06:16:33;;;;;;;7.85;4.38;;;;;;;7.70;43.03;99133.88;4992170;28;20065;-79
2024/01/27 06:18:58;;;;;;;7.70;3.92;;;;;;;7.68;43.03;99136.56;4991521;28;20034;-79
2024/01/27 06:21:25;;;;;;;9.32;4.75;;;;;;;7.79;43.10;99154.13;4992041;28;20042;-79
2024/01/27 06:23:50;;;;;;;9.07;4.85;;;;;;;7.78;43.26;99147.28;4975926;28;20069;-77
2024/01/27 06:26:16;;;;;;;10.38;4.55;;;;;;;7.86;42.90;99159.81;4975794;28;20069;-77
2024/01/27 06:28:41;;;;;;;11.93;4.65;;;;;;;7.85;42.91;99156.38;4991661;28;20109;-78
2024/01/27 06:31:07;;;;;;;12.93;5.45;;;;;;;7.92;43.08;99146.47;4991742;28;20038;-76
2024/01/27 06:33:34;;;;;;;7.85;4.32;;;;;;;8.06;48.00;99128.28;4982706;28;20069;-77
2024/01/27 06:36:00;;;;;;;7.05;3.50;;;;;;;8.30;53.97;99131.19;4975397;28;20042;-78
2024/01/27 06:38:29;;;;;;;7.07;3.58;;;;;;;8.31;52.48;99113.81;4968645;28;20109;-78
2024/01/27 06:40:54;;;;;;;6.13;3.63;;;;;;;8.30;50.54;99118.19;4937606;28;20039;-80
2024/01/27 06:43:20;;;;;;;5.68;2.83;;;;;;;8.49;58.97;99115.31;4940091;28;20042;-78
2024/01/27 06:45:45;;;;;;;4.90;2.88;;;;;;;8.65;58.21;99106.53;4955970;28;20047;-75
2024/01/27 06:48:11;;;;;;;7.38;3.22;;;;;;;8.77;55.07;99113.59;4956295;28;20555;-86
2024/01/27 06:50:36;;;;;;;10.05;4.03;;;;;;;8.73;53.65;99114.72;4926303;28;21835;-80
2024/01/27 06:53:02;;;;;;;10.98;3.95;;;;;;;8.65;51.93;99112.59;4959742;28;20042;-79
2024/01/27 06:55:30;;;;;;;13.63;3.17;;;;;;;8.81;60.82;99111.66;4958807;28;20073;-80
2024/01/27 06:57:56;;;;;;;3.65;2.35;;;;;;;9.12;63.78;99115.72;4976887;28;20113;-88
2024/01/27 07:00:23;;;;;;;20.73;3.30;;;;;;;9.47;66.18;99094.38;4977801;28;20042;-83
2024/01/27 07:02:49;;;;;;;5.68;2.10;;;;;;;9.65;63.97;99099.31;4959767;28;20046;-78
2024/01/27 07:05:14;;;;;;;7.38;2.40;;;;;;;9.85;64.34;99106.63;4959821;28;20163;-80
2024/01/27 07:07:40;;;;;;;7.40;2.17;;;;;;;10.37;67.04;99099.63;4975787;28;20089;-79
2024/01/27 07:10:07;;;;;;;6.05;2.50;;;;;;;10.41;64.00;99101.09;4959566;28;20483;-84
2024/01/27 07:12:33;;;;;;;6.67;2.63;;;;;;;10.32;60.24;99107.75;4980543;28;20117;-81
2024/01/27 07:14:59;;;;;;;11.70;2.78;;;;;;;10.53;63.94;99098.56;4959980;28;20077;-81
2024/01/27 07:17:26;;;;;;;5.75;2.60;;;;;;;10.53;60.58;99106.38;4959000;28;20078;-79
2024/01/27 07:19:52;;;;;;;8.32;2.72;;;;;;;10.46;60.18;99098.97;4943024;28;20351;-77
2024/01/27 07:22:17;;;;;;;7.57;2.90;;;;;;;10.56;60.63;99095.72;4992659;28;20043;-83
2024/01/27 07:24:43;;;;;;;9.57;3.00;;;;;;;10.41;55.12;99097.66;4975419;28;20117;-84
2024/01/27 07:27:11;;;;;;;7.22;2.90;;;;;;;10.26;58.83;99086.44;4975426;28;20046;-83
2024/01/27 07:29:37;;;;;;;7.57;3.08;;;;;;;10.27;57.21;99099.41;4959503;28;20045;-83
2024/01/27 07:32:02;;;;;;;9.35;3.47;;;;;;;10.15;54.66;99087.19;4943235;28;20042;-84
2024/01/27 07:34:28;;;;;;;6.03;2.90;;;;;;;10.08;56.97;99089.41;4958698;28;20394;-85
2024/01/27 07:36:53;;;;;;;7.75;4.25;;;;;;;10.05;54.97;99094.00;4958962;28;20042;-79
2024/01/27 07:39:19;;;;;;;11.27;4.50;;;;;;;9.96;53.71;99092.84;4975330;28;20077;-83
2024/01/27 07:41:44;;;;;;;10.68;5.60;;;;;;;9.91;51.74;99087.94;4959678;28;20038;-81
2024/01/27 07:44:11;;;;;;;9.90;5.75;;;;;;;9.75;51.10;99075.09;4944696;28;20050;-77
2024/01/27 07:46:40;;;;;;;11.60;6.32;;;;;;;9.67;51.14;99081.78;4959459;28;20038;-78
2024/01/27 07:49:06;;;;;;;20.15;7.00;;;;;;;9.62;50.57;99097.72;4961821;28;20038;-81
2024/01/27 07:51:31;;;;;;;11.95;6.55;;;;;;;9.58;49.77;99098.84;4946306;28;20065;-79
2024/01/27 07:53:59;;;;;;;13.95;7.45;;;;;;;9.52;48.99;99088.84;4963040;28;20038;-79
2024/01/27 07:56:24;;;;;;;20.10;8.05;;;;;;;9.52;48.16;99092.28;4946795;28;20058;-77
2024/01/27 07:58:50;;;;;;;16.08;8.02;;;;;;;9.46;47.92;99084.06;4962619;28;20034;-81
2024/01/27 08:01:16;;;;;;;16.73;8.43;;;;;;;9.47;47.77;99089.16;4962213;28;20118;-79
2024/01/27 08:03:42;;;;;;;19.00;9.65;;;;;;;9.43;47.27;99086.88;4947117;28;20044;-79
2024/01/27 08:06:14;;;;;;;16.48;9.82;;;;;;;9.34;47.09;99078.69;4961963;28;20054;-80
2024/01/27 08:08:39;;;;;;;21.25;10.50;;;;;;;9.36;46.49;99086.41;4947052;28;20034;-81
2024/01/27 08:11:05;;;;;;;18.58;11.32;;;;;;;9.32;45.98;99085.78;4945952;28;20045;-79
2024/01/27 08:13:30;;;;;;;21.77;11.32;;;;;;;9.32;45.74;99082.34;4978770;28;20041;-79
2024/01/27 08:15:56;;;;;;;21.35;11.20;;;;;;;9.31;44.50;99081.50;4946074;28;20038;-79
2024/01/27 08:18:21;;;;;;;26.35;15.00;;;;;;;9.08;43.49;99087.38;4994352;28;20043;-79
2024/01/27 08:20:47;;;;;;;26.65;15.50;;;;;;;8.85;43.26;99082.69;4995423;28;20110;-79
2024/01/27 08:23:12;;;;;;;25.52;15.95;;;;;;;8.80;43.01;99089.16;4962104;28;20070;-79
2024/01/27 08:25:39;;;;;;;28.30;16.30;;;;;;;8.83;42.59;99094.97;4961463;28;20053;-80
2024/01/27 08:28:05;;;;;;;25.52;16.15;;;;;;;8.80;42.56;99097.78;4962049;28;20038;-80
2024/01/27 08:30:30;;;;;;;23.38;16.13;;;;;;;8.89;42.37;99117.19;4945815;28;20046;-79
2024/01/27 08:32:56;;;;;;;25.00;15.73;;;;;;;8.88;42.48;99113.75;4978293;28;20035;-80
2024/01/27 08:35:21;;;;;;;21.13;13.98;;;;;;;8.96;42.89;99115.03;4961856;28;20509;-78
2024/01/27 08:37:47;;;;;;;24.10;13.95;;;;;;;8.95;42.81;99106.41;4961796;28;20278;-79
2024/01/27 08:40:13;;;;;;;19.58;12.35;;;;;;;9.05;42.66;99110.06;4977673;28;20050;-79
2024/01/27 08:42:39;;;;;;;24.02;11.07;;;;;;;9.14;42.55;99105.19;4978070;28;20461;-80
2024/01/27 08:45:06;;;;;;;19.73;11.57;;;;;;;9.26;42.59;99099.19;4978001;28;20108;-79
2024/01/27 08:47:31;;;;;;;18.05;10.48;;;;;;;9.39;42.45;99099.22;4946207;28;20034;-81
2024/01/27 08:49:57;;;;;;;22.60;10.10;;;;;;;9.42;42.14;99096.44;4945903;28;20501;-79
2024/01/27 08:52:23;;;;;;;12.50;9.30;;;;;;;9.51;42.25;99095.81;4977471;28;20093;-80
2024/01/27 08:54:48;;;;;;;16.17;8.85;;;;;;;9.52;42.11;99096.66;4961581;28;20494;-78
2024/01/27 08:57:14;;;;;;;17.90;9.00;;;;;;;9.48;42.12;99090.81;4961955;28;20046;-79
2024/01/27 08:59:39;;;;;;;12.93;8.50;;;;;;;9.54;42.02;99097.41;4962111;28;20081;-80
2024/01/27 09:02:04;;;;;;;14.10;7.68;;;;;;;9.51;41.93;99100.22;4960706;28;20042;-79
2024/01/27 09:04:30;;;;;;;16.35;8.10;;;;;;;9.56;42.09;99106.78;4961050;28;20093;-79
2024/01/27 09:06:55;;;;;;;14.88;7.90;;;;;;;9.57;42.01;99118.06;4961086;28;20046;-81
2024/01/27 09:09:21;;;;;;;12.10;8.05;;;;;;;9.63;41.82;99122.88;4977488;28;20077;-80
2024/01/27 09:11:46;;;;;;;12.23;8.00;;;;;;;9.59;41.67;99109.19;4961811;28;20077;-81
2024/01/27 09:14:12;;;;;;;13.88;8.60;;;;;;;9.60;41.65;99103.03;4961816;28;20485;-81
2024/01/27 09:16:40;;;;;;;14.95;8.52;;;;;;;9.62;41.52;99102.13;4961704;28;20137;-80
2024/01/27 09:19:05;;;;;;;20.60;8.90;;;;;;;9.65;41.62;99097.53;4961915;28;20128;-80
2024/01/27 09:21:32;;;;;;;16.98;9.00;;;;;;;9.67;41.54;99105.25;4977585;28;20072;-81
2024/01/27 09:23:58;;;;;;;14.38;8.88;;;;;;;9.65;41.53;99087.09;4961060;28;20050;-80
2024/01/27 09:26:23;;;;;;;14.35;8.32;;;;;;;9.63;41.72;99080.31;4960756;28;20050;-80
2024/01/27 09:28:58;;;;;;;16.10;8.13;;;;;;;9.67;41.52;99082.59;4977221;28;20555;-79
2024/01/27 09:31:23;;;;;;;11.90;7.43;;;;;;;9.67;41.76;99076.56;4978584;28;20034;-81
2024/01/27 09:33:53;;;;;;;14.02;7.03;;;;;;;9.67;41.47;99074.78;4977045;28;20477;-79
2024/01/27 09:36:19;;;;;;;10.05;5.90;;;;;;;9.70;41.60;99071.97;4960413;28;20494;-80
2024/01/27 09:38:45;;;;;;;8.23;5.25;;;;;;;9.69;41.74;99069.47;4960677;28;20073;-80
2024/01/27 09:41:11;;;;;;;10.48;5.28;;;;;;;9.75;41.94;99072.50;4960308;28;20489;-79
2024/01/27 09:43:37;;;;;;;10.15;5.20;;;;;;;9.74;42.13;99076.06;4944861;28;20125;-81
2024/01/27 09:46:03;;;;;;;9.20;4.50;;;;;;;9.82;42.19;99074.69;4960974;28;20046;-82
2024/01/27 09:48:29;;;;;;;7.35;4.40;;;;;;;9.82;42.08;99080.75;4946570;28;20041;-79
2024/01/27 09:50:54;;;;;;;8.13;4.53;;;;;;;9.85;42.44;99084.91;4943928;28;20425;-79
2024/01/27 09:53:20;;;;;;;9.02;4.07;;;;;;;9.84;42.38;99084.09;4960586;28;20039;-80
2024/01/27 09:55:45;;;;;;;7.70;3.97;;;;;;;9.89;42.67;99094.22;4977329;28;20062;-80
2024/01/27 09:58:11;;;;;;;7.78;4.25;;;;;;;9.90;42.81;99082.84;4960688;28;20065;-80
2024/01/27 10:00:37;;;;;;;6.30;3.33;;;;;;;10.01;42.75;99090.78;4943717;28;20039;-80
2024/01/27 10:03:03;;;;;;;14.90;7.57;;;;;;;9.72;42.01;99095.34;4976635;28;20050;-79
2024/01/27 10:05:28;;;;;;;11.18;7.10;;;;;;;9.54;43.28;99093.03;4959983;28;20484;-79
2024/01/27 10:07:54;;;;;;;14.98;8.15;;;;;;;9.38;42.66;99089.78;4960186;28;20122;-78
2024/01/27 10:10:19;;;;;;;16.08;8.60;;;;;;;9.43;43.12;99089.47;4943974;28;20046;-80
2024/01/27 10:12:45;;;;;;;18.02;8.73;;;;;;;9.55;43.04;99086.88;4959696;28;20469;-81
2024/01/27 10:15:23;;;;;;;14.65;8.23;;;;;;;9.70;42.57;99084.19;4959063;28;20073;-80
2024/01/27 10:17:49;;;;;;;18.38;8.18;;;;;;;9.82;42.33;99077.28;4943451;28;20042;-80
2024/01/27 10:20:15;;;;;;;17.98;7.75;;;;;;;9.92;42.48;99084.41;4959636;28;20034;-79
2024/01/27 10:22:41;;;;;;;13.93;7.10;;;;;;;9.96;41.80;99088.47;4960084;28;20042;-80
2024/01/27 10:25:08;;;;;;;12.65;6.72;;;;;;;10.03;42.02;99082.84;4959916;28;20046;-80
2024/01/27 10:27:33;;;;;;;11.18;6.40;;;;;;;10.03;41.60;99082.84;4976152;28;20041;-79
2024/01/27 10:29:59;;;;;;;10.65;6.75;;;;;;;10.02;41.63;99075.94;4975692;28;20038;-80
2024/01/27 10:32:24;;;;;;;14.60;7.03;;;;;;;10.08;41.92;99094.59;4943718;28;20045;-80
2024/01/27 10:35:08;;;;;;;13.18;6.68;;;;;;;10.07;41.81;99074.69;4943676;28;20069;-81
2024/01/27 10:37:34;;;;;;;10.50;5.70;;;;;;;10.07;41.73;99079.91;4943942;28;20515;-79
2024/01/27 10:40:07;;;;;;;14.15;6.80;;;;;;;10.11;41.70;99072.72;4959718;28;20465;-80
2024/01/27 10:42:33;;;;;;;10.73;6.57;;;;;;;10.18;41.47;99062.69;4974729;28;20064;-80
2024/01/27 10:45:02;;;;;;;15.98;6.72;;;;;;;10.25;41.63;99054.31;4959263;28;20555;-79
2024/01/27 10:47:29;;;;;;;13.57;6.65;;;;;;;10.38;41.54;99069.16;4959854;28;20054;-80
2024/01/27 10:49:58;;;;;;;11.45;7.03;;;;;;;10.41;41.48;99061.13;4959949;28;20034;-80
2024/01/27 10:52:28;;;;;;;14.32;6.65;;;;;;;10.46;41.74;99066.84;4958927;28;20457;-79
2024/01/27 10:55:03;;;;;;;11.18;7.35;;;;;;;10.40;41.55;99062.88;4976488;28;20038;-79
2024/01/27 10:57:29;;;;;;;11.20;6.68;;;;;;;10.47;41.38;99065.91;4960396;28;20038;-79
2024/01/27 10:59:56;;;;;;;24.02;7.88;;;;;;;10.44;41.42;99072.16;4943790;28;20093;-78
2024/01/27 11:02:21;;;;;;;15.13;7.18;;;;;;;10.45;41.49;99067.75;4943025;28;20042;-79
2024/01/27 11:04:48;;;;;;;14.48;7.50;;;;;;;10.42;41.57;99070.59;4959590;28;20038;-79
2024/01/27 11:07:13;;;;;;;12.70;6.97;;;;;;;10.41;41.60;99076.78;4975398;28;20206;-78
2024/01/27 11:09:39;;;;;;;17.85;7.40;;;;;;;10.36;41.62;99078.84;4975571;28;20142;-80
2024/01/27 11:12:05;;;;;;;13.75;7.00;;;;;;;10.32;41.82;99086.88;4959343;28;20108;-80
2024/01/27 11:14:30;;;;;;;15.30;7.25;;;;;;;10.31;41.80;99084.38;4959977;28;20532;-81
2024/01/27 11:16:57;;;;;;;16.10;8.68;;;;;;;10.29;41.83;99084.50;4959686;28;20042;-82
2024/01/27 11:19:22;;;;;;;15.57;8.65;;;;;;;10.23;42.10;99084.06;4959342;28;20541;-79
2024/01/27 11:21:48;;;;;;;14.88;8.80;;;;;;;10.24;41.88;99081.34;4943165;28;20137;-78
2024/01/27 11:24:17;;;;;;;15.50;9.30;;;;;;;10.27;42.02;99069.88;4959450;28;20081;-79
2024/01/27 11:26:42;;;;;;;13.93;9.02;;;;;;;10.23;42.09;99065.78;4946642;28;20042;-78
2024/01/27 11:29:09;;;;;;;15.90;9.40;;;;;;;10.23;41.90;99073.63;4962725;28;20046;-80
2024/01/27 11:31:35;;;;;;;13.00;8.43;;;;;;;10.17;42.08;99074.91;4963398;28;20549;-78